Nisku, Canada
Current Conditions -  °F | °C
As of 11:00 AM on Thursday 29 Jan 2015 (Local Time) from CYEG Reporting Station
Haze Haze  
Wind Chill: 14°   Ceiling: 500
Heat Index: 25°   Visibility: 2.5mi
Dew Point: 23°   Wind: 12mph
Humidity: 93%   Direction: 170°S
Pressure: 30.22"   Gusts: NA
Location:  53.33°N, 113.53°W
Report Text: CYEG 291800Z 17010KT 2 1/2SM BR OVC005 M04/M05 A3022 RMK FG2ST6 PRESFR SLP279
Loading
Personal Weather Stations






























Interactive Weather Map New forecast layout! Learn more

10-Day Weather Forecast

Advertisements
Track Severe Weather on mobile